Here is the Quick Look data you requested

The Data originates at the National Weather Service, and is made available here by the UAlbany Department of Atmospheric and Environmental Sciences

Surface Observations

PHHI 230158Z VRB05KT 10SM BKN036 27/20 A3007 RMK AO2A SLP172 T02690195 $=
PHJH 230145Z VRB06KT 15SM FEW040 28/17 A3006 RMK LAST=
PHJR 230153Z 14009KT 10SM CLR 28/20 A3007 RMK AO2 SLP190 T02830200=
PHKO 230153Z 24009KT 10SM CLR 28/18 A3003 RMK AO2 SLP169 T02780183=
PHLI 230153Z 09009KT 10SM CLR 26/19 A3009 RMK AO2 SLP187 T02610189=
PHMK 230154Z 13006KT 10SM FEW030 28/18 A3007 RMK AO2 SLP183 T02780183=
PHNL 230153Z VRB05KT 10SM FEW026 SCT042 29/17 A3005 RMK AO2 WSHFT 0043 SLP177
 T02890167=
PHNY 230156Z AUTO 27011G15KT 10SM BKN026 24/17 A3011 RMK AO2 SLP181 T02390172=
PHOG 230154Z 02014G17KT 10SM SCT055 SCT060 29/18 A3003 RMK AO2 SLP175 T02890183=
PHSF 230156Z AUTO 16018G24KT 10SM CLR 22/M05 A3034 RMK AO2 PK WND 17027/0058
 SLP161 T02161051 $=
PHTO 230153Z 11014KT 10SM FEW040 FEW060 28/19 A3006 RMK AO2 SLP178 T02780189 $=
PMDY 230156Z AUTO 13012KT 10SM CLR 23/21 A2995 RMK AO2 SLP140 T02330206=